createdAt,value
2019-03-08T00:01:44.208Z,8.80
2019-03-08T00:04:48.029Z,8.80
2019-03-08T00:07:51.821Z,8.80
2019-03-08T00:10:55.711Z,8.80
2019-03-08T00:13:59.755Z,8.70
2019-03-08T00:17:03.469Z,9.00
2019-03-08T00:20:07.478Z,8.70
2019-03-08T00:23:11.226Z,8.80
2019-03-08T00:26:15.460Z,8.90
2019-03-08T00:29:19.145Z,8.80
2019-03-08T00:32:22.896Z,8.70
2019-03-08T00:35:26.585Z,8.80
2019-03-08T00:38:30.352Z,8.70
2019-03-08T00:41:34.121Z,8.60
2019-03-08T00:44:37.965Z,8.80
2019-03-08T00:47:43.484Z,8.80
2019-03-08T00:50:47.234Z,8.70
2019-03-08T00:53:51.093Z,8.70
2019-03-08T00:56:54.889Z,8.50
2019-03-08T00:59:58.840Z,8.60
2019-03-08T01:03:02.942Z,8.70
2019-03-08T01:06:06.728Z,8.50
2019-03-08T01:09:10.400Z,8.50
2019-03-08T01:12:14.689Z,8.50
2019-03-08T01:15:18.670Z,8.70
2019-03-08T01:18:22.429Z,8.40
2019-03-08T01:21:26.163Z,8.60
2019-03-08T01:24:30.148Z,8.70
2019-03-08T01:27:34.141Z,8.50
2019-03-08T01:30:38.896Z,8.80
2019-03-08T01:33:42.770Z,8.50
2019-03-08T01:36:46.525Z,8.40
2019-03-08T01:39:50.269Z,8.40
2019-03-08T01:42:54.449Z,8.40
2019-03-08T01:45:58.429Z,8.30
2019-03-08T01:49:02.257Z,8.40
2019-03-08T01:52:06.229Z,8.30
2019-03-08T01:55:10.004Z,8.40
2019-03-08T01:58:13.748Z,8.50
2019-03-08T02:01:17.605Z,8.50
2019-03-08T02:04:21.648Z,8.40
2019-03-08T02:07:25.774Z,8.40
2019-03-08T02:10:29.688Z,8.40
2019-03-08T02:13:33.586Z,8.30
2019-03-08T02:16:38.014Z,8.30
2019-03-08T02:19:41.803Z,8.30
2019-03-08T02:22:46.065Z,8.50
2019-03-08T02:25:49.792Z,8.40
2019-03-08T02:28:53.937Z,8.40
2019-03-08T02:31:57.679Z,8.40
2019-03-08T02:35:01.487Z,8.40
2019-03-08T02:38:05.187Z,8.40
2019-03-08T02:41:08.913Z,8.60
2019-03-08T02:44:12.612Z,8.40
2019-03-08T02:47:16.382Z,8.50
2019-03-08T02:50:20.414Z,8.40
2019-03-08T02:53:24.077Z,8.60
2019-03-08T02:56:27.853Z,8.40
2019-03-08T02:59:31.919Z,8.40
2019-03-08T03:02:35.877Z,8.50
2019-03-08T03:05:39.717Z,8.50
2019-03-08T03:08:43.386Z,8.20
2019-03-08T03:11:47.208Z,8.40
2019-03-08T03:14:50.879Z,8.50
2019-03-08T03:17:54.568Z,8.60
2019-03-08T03:20:58.269Z,8.60
2019-03-08T03:24:01.894Z,8.60
2019-03-08T03:27:06.054Z,8.70
2019-03-08T03:30:09.903Z,8.60
2019-03-08T03:33:13.586Z,8.70
2019-03-08T03:36:17.321Z,8.70
2019-03-08T03:39:21.059Z,8.70
2019-03-08T03:42:24.699Z,8.80
2019-03-08T03:45:28.453Z,8.50
2019-03-08T03:48:32.146Z,8.70
2019-03-08T03:51:35.929Z,8.70
2019-03-08T03:54:39.721Z,8.70
2019-03-08T03:57:43.353Z,8.70
2019-03-08T04:00:47.139Z,8.80
2019-03-08T04:03:50.925Z,8.70
2019-03-08T04:06:54.969Z,9.00
2019-03-08T04:09:58.822Z,8.70
2019-03-08T04:13:02.569Z,8.60
2019-03-08T04:16:06.620Z,8.80
2019-03-08T04:19:10.392Z,8.90
2019-03-08T04:22:14.413Z,8.80
2019-03-08T04:25:18.109Z,8.90
2019-03-08T04:28:21.793Z,8.70
2019-03-08T04:31:25.697Z,8.80
2019-03-08T04:34:29.393Z,9.00
2019-03-08T04:37:33.058Z,8.90
2019-03-08T04:40:36.957Z,9.00
2019-03-08T04:43:40.621Z,9.20
2019-03-08T04:46:44.290Z,9.00
2019-03-08T04:49:48.038Z,9.00
2019-03-08T04:52:51.774Z,9.00
2019-03-08T04:55:55.433Z,9.00
2019-03-08T04:58:59.109Z,9.20
2019-03-08T05:02:03.098Z,9.20
2019-03-08T05:05:07.184Z,9.20
2019-03-08T05:08:10.852Z,9.20
2019-03-08T05:11:14.550Z,9.20
2019-03-08T05:14:18.598Z,9.20
2019-03-08T05:17:22.399Z,9.20
2019-03-08T05:20:26.112Z,9.20
2019-03-08T05:23:29.972Z,9.20
2019-03-08T05:26:33.952Z,9.10
2019-03-08T05:29:37.641Z,9.20
2019-03-08T05:32:41.865Z,9.20
2019-03-08T05:35:46.331Z,9.30
2019-03-08T05:38:50.041Z,9.30
2019-03-08T05:41:53.735Z,9.30
2019-03-08T05:44:57.441Z,9.30
2019-03-08T05:48:01.389Z,9.10
2019-03-08T05:51:05.148Z,9.30
2019-03-08T05:54:08.792Z,9.30
2019-03-08T05:57:12.473Z,9.40
2019-03-08T06:00:17.979Z,9.40
2019-03-08T06:03:21.675Z,9.40
2019-03-08T06:06:26.168Z,9.40
2019-03-08T06:09:29.997Z,9.30
2019-03-08T06:12:34.096Z,9.40
2019-03-08T06:15:37.733Z,9.40
2019-03-08T06:18:41.437Z,9.40
2019-03-08T06:21:45.645Z,9.40
2019-03-08T06:24:49.752Z,9.40
2019-03-08T06:27:53.499Z,9.40
2019-03-08T06:30:57.208Z,9.40
2019-03-08T06:34:00.884Z,9.50
2019-03-08T06:37:04.973Z,9.50
2019-03-08T06:40:08.724Z,9.50
2019-03-08T06:43:12.689Z,9.60
2019-03-08T06:46:16.420Z,9.60
2019-03-08T06:49:20.090Z,9.60
2019-03-08T06:52:24.049Z,9.60
2019-03-08T06:55:27.697Z,9.60
2019-03-08T06:58:54.314Z,9.60
2019-03-08T07:01:58.235Z,9.60
2019-03-08T07:05:02.124Z,9.50
2019-03-08T07:08:05.965Z,9.50
2019-03-08T07:11:09.642Z,9.50
2019-03-08T07:14:13.412Z,9.50
2019-03-08T07:17:17.193Z,9.50
2019-03-08T07:20:43.040Z,9.60
2019-03-08T07:24:12.227Z,9.50
2019-03-08T07:27:34.001Z,9.60
2019-03-08T07:31:00.807Z,9.60
2019-03-08T07:34:26.624Z,9.60
2019-03-08T07:37:46.757Z,9.60
2019-03-08T07:41:07.949Z,9.70
2019-03-08T07:44:25.428Z,9.70
2019-03-08T07:47:35.656Z,9.70
2019-03-08T07:51:03.333Z,9.70
2019-03-08T07:54:26.153Z,9.70
2019-03-08T07:57:47.744Z,9.70
2019-03-08T08:01:19.729Z,9.70
2019-03-08T08:04:43.135Z,9.70
2019-03-08T08:08:04.921Z,9.70
2019-03-08T08:11:20.271Z,9.80
2019-03-08T08:14:40.265Z,9.80
2019-03-08T08:18:05.730Z,9.80
2019-03-08T08:21:37.820Z,9.90
2019-03-08T08:24:52.182Z,9.90
2019-03-08T08:28:04.773Z,9.80
2019-03-08T08:31:39.777Z,9.80
2019-03-08T08:34:58.584Z,9.80
2019-03-08T08:38:11.703Z,9.80
2019-03-08T08:41:22.990Z,9.90
2019-03-08T08:44:39.001Z,9.90
2019-03-08T08:48:08.064Z,9.90
2019-03-08T08:51:20.440Z,9.90
2019-03-08T08:54:40.368Z,9.80
2019-03-08T08:57:54.916Z,9.80
2019-03-08T09:01:05.067Z,9.80
2019-03-08T09:04:31.848Z,9.70
2019-03-08T09:07:40.797Z,9.90
2019-03-08T09:11:06.904Z,9.70
2019-03-08T09:14:18.077Z,9.70
2019-03-08T09:17:40.285Z,9.70
2019-03-08T09:21:01.882Z,9.80
2019-03-08T09:24:21.846Z,9.80
2019-03-08T09:27:30.305Z,9.80
2019-03-08T09:30:56.323Z,9.80
2019-03-08T09:34:18.990Z,9.80
2019-03-08T09:37:35.638Z,9.70
2019-03-08T09:40:57.525Z,9.60
2019-03-08T09:44:08.273Z,9.50
2019-03-08T09:47:23.114Z,9.40
2019-03-08T09:50:36.862Z,9.30
2019-03-08T09:54:02.545Z,9.30
2019-03-08T09:57:13.893Z,9.30
2019-03-08T10:00:42.333Z,9.30
2019-03-08T10:04:09.502Z,9.30
2019-03-08T10:07:18.908Z,9.00
2019-03-08T10:10:39.128Z,8.90
2019-03-08T10:13:56.699Z,8.70
2019-03-08T10:17:09.851Z,8.70
2019-03-08T10:20:22.646Z,8.70
2019-03-08T10:23:48.541Z,8.60
2019-03-08T10:27:10.692Z,8.80
2019-03-08T10:30:33.989Z,8.80
2019-03-08T10:33:57.413Z,9.00
2019-03-08T10:37:19.769Z,9.10
2019-03-08T10:40:41.533Z,9.10
2019-03-08T10:43:50.249Z,9.30
2019-03-08T10:47:00.448Z,9.30
2019-03-08T10:50:23.117Z,9.40
2019-03-08T10:53:34.916Z,9.50
2019-03-08T10:57:13.249Z,9.50
2019-03-08T11:00:34.922Z,9.50
2019-03-08T11:03:57.676Z,9.60
2019-03-08T11:07:24.031Z,9.60
2019-03-08T11:10:37.096Z,9.50
2019-03-08T11:13:59.899Z,9.40
2019-03-08T11:17:22.371Z,9.20
2019-03-08T11:20:46.369Z,8.90
2019-03-08T11:24:02.460Z,8.50
2019-03-08T11:27:34.260Z,8.60
2019-03-08T11:31:00.257Z,8.20
2019-03-08T11:34:08.961Z,8.30
2019-03-08T11:37:27.905Z,8.00
2019-03-08T11:40:58.084Z,8.00
2019-03-08T11:44:08.496Z,8.00
2019-03-08T11:47:21.371Z,8.30
2019-03-08T11:50:31.853Z,8.10
2019-03-08T11:54:06.741Z,8.00
2019-03-08T11:57:38.689Z,8.20
2019-03-08T12:00:54.069Z,8.10
2019-03-08T12:04:05.234Z,8.10
2019-03-08T12:07:21.115Z,8.40
2019-03-08T12:10:42.986Z,8.60
2019-03-08T12:14:03.035Z,8.70
2019-03-08T12:17:23.422Z,9.00
2019-03-08T12:20:49.204Z,9.30
2019-03-08T12:24:07.881Z,9.50
2019-03-08T12:27:33.686Z,9.90
2019-03-08T12:30:55.051Z,9.90
2019-03-08T12:34:22.247Z,9.90
2019-03-08T12:37:48.121Z,9.90
2019-03-08T12:41:22.837Z,9.90
2019-03-08T12:44:45.750Z,10.00
2019-03-08T12:48:07.309Z,9.90
2019-03-08T12:51:34.705Z,9.80
2019-03-08T12:54:56.140Z,9.60
2019-03-08T12:58:12.056Z,9.60
2019-03-08T13:01:33.560Z,9.60
2019-03-08T13:04:59.314Z,9.70
2019-03-08T13:08:10.834Z,9.80
2019-03-08T13:11:14.505Z,10.00
2019-03-08T13:14:18.620Z,10.10
2019-03-08T13:17:22.275Z,10.20
2019-03-08T13:20:26.311Z,10.20
2019-03-08T13:23:30.048Z,10.30
2019-03-08T13:26:34.036Z,10.30
2019-03-08T13:29:37.725Z,10.30
2019-03-08T13:32:41.411Z,10.40
2019-03-08T13:35:45.201Z,10.60
2019-03-08T13:38:48.987Z,10.70
2019-03-08T13:41:52.731Z,10.60
2019-03-08T13:44:56.486Z,10.40
2019-03-08T13:48:00.197Z,10.40
2019-03-08T13:51:04.331Z,10.40
2019-03-08T13:54:08.061Z,10.60
2019-03-08T13:57:11.850Z,10.70
2019-03-08T14:00:16.642Z,10.70
2019-03-08T14:03:21.645Z,10.80
2019-03-08T14:06:25.309Z,10.70
2019-03-08T14:09:29.560Z,10.60
2019-03-08T14:12:33.707Z,10.60
2019-03-08T14:15:37.632Z,10.50
2019-03-08T14:18:41.375Z,10.50
2019-03-08T14:21:45.196Z,10.50
2019-03-08T14:24:48.933Z,10.50
2019-03-08T14:27:54.930Z,10.40
2019-03-08T14:31:12.481Z,10.40
2019-03-08T14:34:17.079Z,10.40
2019-03-08T14:37:21.558Z,10.50
2019-03-08T14:40:44.425Z,10.50
2019-03-08T14:43:53.908Z,10.50
2019-03-08T14:47:05.366Z,10.50
2019-03-08T14:50:11.076Z,10.60
2019-03-08T14:53:14.764Z,10.60
2019-03-08T14:56:18.446Z,10.60
2019-03-08T14:59:22.158Z,10.60
2019-03-08T15:02:25.837Z,10.40
2019-03-08T15:05:29.493Z,10.30
2019-03-08T15:08:33.405Z,10.30
2019-03-08T15:11:37.718Z,10.10
2019-03-08T15:14:41.746Z,10.10
2019-03-08T15:17:45.550Z,10.20
2019-03-08T15:20:49.192Z,10.20
2019-03-08T15:23:54.437Z,10.10
2019-03-08T15:26:58.497Z,10.00
2019-03-08T15:30:02.180Z,9.90
2019-03-08T15:33:05.899Z,9.90
2019-03-08T15:36:09.593Z,9.80
2019-03-08T15:39:13.314Z,9.90
2019-03-08T15:42:17.055Z,9.70
2019-03-08T15:45:21.353Z,9.70
2019-03-08T15:48:25.028Z,9.60
2019-03-08T15:51:28.675Z,9.80
2019-03-08T15:54:32.716Z,9.50
2019-03-08T15:57:36.740Z,9.50
2019-03-08T16:00:41.376Z,9.40
2019-03-08T16:03:45.207Z,9.40
2019-03-08T16:06:48.900Z,9.30
2019-03-08T16:09:53.321Z,9.30
2019-03-08T16:12:57.097Z,9.30
2019-03-08T16:16:00.886Z,9.20
2019-03-08T16:19:04.773Z,9.20
2019-03-08T16:22:08.763Z,9.30
2019-03-08T16:25:12.644Z,9.00
2019-03-08T16:28:16.299Z,9.00
2019-03-08T16:31:31.920Z,9.00
2019-03-08T16:34:35.588Z,8.90
2019-03-08T16:37:57.028Z,9.10
2019-03-08T16:41:10.821Z,8.90
2019-03-08T16:44:27.324Z,8.90
2019-03-08T16:48:02.007Z,8.90
2019-03-08T16:51:11.268Z,8.80
2019-03-08T16:54:36.480Z,8.80
2019-03-08T16:58:08.356Z,8.80
2019-03-08T17:01:34.055Z,9.00
2019-03-08T17:04:57.059Z,8.60
2019-03-08T17:08:12.257Z,8.70
2019-03-08T17:11:30.725Z,8.70
2019-03-08T17:14:48.391Z,8.60
2019-03-08T17:18:12.216Z,8.60
2019-03-08T17:21:23.801Z,8.50
2019-03-08T17:24:34.489Z,8.50
2019-03-08T17:27:46.008Z,8.50
2019-03-08T17:31:11.152Z,8.50
2019-03-08T17:34:39.788Z,8.50
2019-03-08T17:37:51.546Z,8.30
2019-03-08T17:41:22.606Z,8.40
2019-03-08T17:44:44.226Z,8.40
2019-03-08T17:48:10.093Z,8.30
2019-03-08T17:51:23.000Z,8.20
2019-03-08T17:54:51.154Z,8.10
2019-03-08T17:58:08.021Z,8.10
2019-03-08T18:01:30.960Z,8.00
2019-03-08T18:04:41.700Z,8.00
2019-03-08T18:08:03.236Z,8.00
2019-03-08T18:11:26.860Z,7.80
2019-03-08T18:14:57.226Z,7.80
2019-03-08T18:18:06.953Z,7.90
2019-03-08T18:21:23.808Z,7.90
2019-03-08T18:24:38.273Z,7.80
2019-03-08T18:27:51.785Z,7.70
2019-03-08T18:31:05.677Z,7.60
2019-03-08T18:34:29.848Z,7.70
2019-03-08T18:37:47.046Z,7.60
2019-03-08T18:41:03.984Z,7.50
2019-03-08T18:44:27.036Z,7.60
2019-03-08T18:47:41.398Z,7.50
2019-03-08T18:51:03.691Z,7.50
2019-03-08T18:54:26.723Z,7.40
2019-03-08T18:57:48.798Z,7.50
2019-03-08T19:01:09.124Z,7.30
2019-03-08T19:04:19.385Z,7.40
2019-03-08T19:07:38.290Z,7.40
2019-03-08T19:11:04.225Z,7.40
2019-03-08T19:14:32.963Z,7.10
2019-03-08T19:17:45.233Z,7.50
2019-03-08T19:20:59.501Z,7.30
2019-03-08T19:24:12.083Z,7.50
2019-03-08T19:27:34.933Z,7.30
2019-03-08T19:30:46.264Z,7.30
2019-03-08T19:34:06.804Z,7.10
2019-03-08T19:37:28.367Z,7.10
2019-03-08T19:40:39.701Z,7.20
2019-03-08T19:43:55.199Z,7.30
2019-03-08T19:47:08.355Z,7.20
2019-03-08T19:50:30.389Z,7.10
2019-03-08T19:53:58.253Z,7.20
2019-03-08T19:57:39.225Z,7.10
2019-03-08T20:00:58.466Z,7.00
2019-03-08T20:04:21.293Z,6.90
2019-03-08T20:07:42.440Z,6.90
2019-03-08T20:11:03.972Z,7.00
2019-03-08T20:14:25.871Z,6.80
2019-03-08T20:17:38.141Z,6.50
2019-03-08T20:20:51.606Z,6.50
2019-03-08T20:24:01.788Z,6.60
2019-03-08T20:27:13.033Z,6.60
2019-03-08T20:30:45.002Z,6.60
2019-03-08T20:34:06.661Z,6.70
2019-03-08T20:37:32.522Z,6.50
2019-03-08T20:41:13.879Z,6.70
2019-03-08T20:44:24.322Z,6.50
2019-03-08T20:47:30.589Z,6.60
2019-03-08T20:50:34.670Z,6.70
2019-03-08T20:53:38.378Z,6.30
2019-03-08T20:56:42.067Z,6.30
2019-03-08T20:59:45.878Z,6.50
2019-03-08T21:02:49.773Z,6.60
2019-03-08T21:05:53.522Z,6.40
2019-03-08T21:08:58.218Z,6.40
2019-03-08T21:12:01.905Z,6.30
2019-03-08T21:15:07.618Z,6.20
2019-03-08T21:18:11.317Z,6.40
2019-03-08T21:21:14.994Z,6.40
2019-03-08T21:24:18.646Z,6.40
2019-03-08T21:27:22.628Z,6.50
2019-03-08T21:30:26.348Z,6.30
2019-03-08T21:33:30.106Z,6.40
2019-03-08T21:36:34.152Z,6.30
2019-03-08T21:39:37.828Z,6.40
2019-03-08T21:42:41.851Z,6.40
2019-03-08T21:45:45.526Z,6.30
2019-03-08T21:48:49.309Z,6.30
2019-03-08T21:51:52.985Z,6.30
2019-03-08T21:54:56.985Z,6.50
2019-03-08T21:58:01.612Z,6.50
2019-03-08T22:01:05.829Z,6.20
2019-03-08T22:04:15.976Z,6.50
2019-03-08T22:07:19.927Z,6.30
2019-03-08T22:10:37.496Z,6.10
2019-03-08T22:13:42.253Z,6.30
2019-03-08T22:16:46.006Z,6.10
2019-03-08T22:19:49.974Z,6.30
2019-03-08T22:22:53.668Z,6.40
2019-03-08T22:25:57.685Z,6.40
2019-03-08T22:29:01.401Z,6.40
2019-03-08T22:32:05.333Z,6.30
2019-03-08T22:35:09.320Z,6.20
2019-03-08T22:38:12.990Z,6.30
2019-03-08T22:41:16.715Z,6.30
2019-03-08T22:44:20.768Z,6.10
2019-03-08T22:47:24.411Z,6.30
2019-03-08T22:50:28.396Z,6.00
2019-03-08T22:53:32.396Z,6.30
2019-03-08T22:56:36.470Z,6.00
2019-03-08T22:59:40.157Z,5.90
2019-03-08T23:02:43.913Z,6.40
2019-03-08T23:05:47.677Z,6.10
2019-03-08T23:08:51.337Z,6.10
2019-03-08T23:11:55.016Z,6.20
2019-03-08T23:14:58.714Z,6.40
2019-03-08T23:18:02.480Z,6.30
2019-03-08T23:21:06.141Z,6.30
2019-03-08T23:24:09.809Z,6.30
2019-03-08T23:27:32.909Z,6.30
2019-03-08T23:30:36.925Z,6.30
2019-03-08T23:33:40.590Z,6.10
2019-03-08T23:36:44.476Z,6.30
2019-03-08T23:39:48.178Z,6.30
2019-03-08T23:42:52.166Z,6.40
2019-03-08T23:45:55.839Z,6.60
2019-03-08T23:48:59.703Z,6.20
2019-03-08T23:52:03.630Z,6.10
2019-03-08T23:55:07.785Z,6.60
2019-03-08T23:58:11.461Z,6.20
